WAT514 FBSK-FDSK
Flight info
| Callsign | WAT514 |
|---|---|
| Flight time | 0h 56m |
| Altitude | 33000 |
| Route | UDBUL1B UDBUL DCT EXOBI Q4 IXESU |
| Aircraft | CL60/M-SBDE1E2E3FGHIJ1J4J5J7M3RWXYZ/LB1V1D1 |
Departure
| Time | 2026-05-07 12:57 |
|---|---|
| Airport | Sir Seretse Khama International Airport (FBSK) |
Arrival
| Time | 2026-05-07 13:54 |
|---|---|
| Airport | King Mswati III International Airport (FDSK) |
| Time | Latitude | Longitude | Altitude | Speed | Heading |
|---|---|---|---|---|---|
| 2026-05-07 12:56 | -24.54552 | 25.94040 | 3300 ft | 1 kts | 330° |
| 2026-05-07 12:56 | -24.54516 | 25.94020 | 3300 ft | 10 kts | 333° |
| 2026-05-07 12:56 | -24.54477 | 25.93963 | 3299 ft | 10 kts | 248° |
| 2026-05-07 12:57 | -24.54491 | 25.93934 | 3300 ft | 14 kts | 242° |
| 2026-05-07 12:57 | -24.54688 | 25.93540 | 3305 ft | 106 kts | 240° |
| 2026-05-07 12:57 | -24.55168 | 25.92566 | 3485 ft | 168 kts | 240° |
| 2026-05-07 12:57 | -24.55757 | 25.91384 | 4238 ft | 187 kts | 240° |
| 2026-05-07 12:58 | -24.56394 | 25.90155 | 5285 ft | 193 kts | 239° |
| 2026-05-07 12:58 | -24.57060 | 25.88816 | 6107 ft | 217 kts | 241° |
| 2026-05-07 12:58 | -24.57788 | 25.87320 | 7210 ft | 229 kts | 242° |
| 2026-05-07 12:58 | -24.58525 | 25.85803 | 8416 ft | 233 kts | 242° |
| 2026-05-07 12:59 | -24.59284 | 25.84239 | 9664 ft | 236 kts | 243° |
| 2026-05-07 12:59 | -24.60051 | 25.82667 | 10901 ft | 238 kts | 242° |
| 2026-05-07 12:59 | -24.61153 | 25.81390 | 12101 ft | 245 kts | 213° |
| 2026-05-07 12:59 | -24.62890 | 25.80964 | 12944 ft | 277 kts | 182° |
| 2026-05-07 13:00 | -24.64810 | 25.81680 | 13643 ft | 313 kts | 154° |
| 2026-05-07 13:00 | -24.66690 | 25.83005 | 14531 ft | 325 kts | 153° |
| 2026-05-07 13:00 | -24.68618 | 25.84334 | 15525 ft | 330 kts | 154° |
| 2026-05-07 13:00 | -24.70584 | 25.85634 | 16467 ft | 336 kts | 155° |
| 2026-05-07 13:01 | -24.72697 | 25.86968 | 16882 ft | 360 kts | 156° |
| 2026-05-07 13:01 | -24.74949 | 25.88313 | 17386 ft | 378 kts | 157° |
| 2026-05-07 13:01 | -24.77312 | 25.89657 | 18111 ft | 387 kts | 158° |
| 2026-05-07 13:01 | -24.79741 | 25.90973 | 18911 ft | 393 kts | 160° |
| 2026-05-07 13:02 | -24.82205 | 25.92249 | 19712 ft | 398 kts | 160° |
| 2026-05-07 13:02 | -24.84638 | 25.93762 | 20459 ft | 410 kts | 150° |
| 2026-05-07 13:02 | -24.86831 | 25.95862 | 21165 ft | 424 kts | 136° |
| 2026-05-07 13:02 | -24.88656 | 25.98447 | 21822 ft | 434 kts | 129° |
| 2026-05-07 13:03 | -24.90434 | 26.01177 | 22445 ft | 441 kts | 129° |
| 2026-05-07 13:03 | -24.92233 | 26.03925 | 23104 ft | 446 kts | 129° |
| 2026-05-07 13:03 | -24.94053 | 26.06710 | 23757 ft | 452 kts | 130° |
| 2026-05-07 13:03 | -24.95909 | 26.09548 | 24392 ft | 458 kts | 130° |
| 2026-05-07 13:04 | -24.97757 | 26.12377 | 24965 ft | 464 kts | 130° |
| 2026-05-07 13:04 | -24.99680 | 26.15321 | 25568 ft | 470 kts | 130° |
| 2026-05-07 13:04 | -25.01622 | 26.18297 | 26154 ft | 475 kts | 130° |
| 2026-05-07 13:04 | -25.03548 | 26.21248 | 26693 ft | 480 kts | 130° |
| 2026-05-07 13:05 | -25.05518 | 26.24269 | 27225 ft | 486 kts | 130° |
| 2026-05-07 13:05 | -25.07517 | 26.27336 | 27733 ft | 491 kts | 130° |
| 2026-05-07 13:05 | -25.09519 | 26.30410 | 28232 ft | 496 kts | 130° |
| 2026-05-07 13:05 | -25.11540 | 26.33516 | 28726 ft | 500 kts | 130° |
| 2026-05-07 13:06 | -25.13579 | 26.36650 | 29153 ft | 505 kts | 130° |
| 2026-05-07 13:06 | -25.15636 | 26.39815 | 29581 ft | 510 kts | 130° |
| 2026-05-07 13:06 | -25.17701 | 26.42993 | 30062 ft | 513 kts | 130° |
| 2026-05-07 13:06 | -25.19711 | 26.46259 | 30498 ft | 519 kts | 123° |
| 2026-05-07 13:07 | -25.21191 | 26.49921 | 30887 ft | 527 kts | 112° |
| 2026-05-07 13:07 | -25.22438 | 26.53775 | 31232 ft | 531 kts | 111° |
| 2026-05-07 13:07 | -25.23677 | 26.57586 | 31603 ft | 535 kts | 111° |
| 2026-05-07 13:07 | -25.24939 | 26.61468 | 31981 ft | 537 kts | 111° |
| 2026-05-07 13:08 | -25.26211 | 26.65382 | 32346 ft | 540 kts | 111° |
| 2026-05-07 13:08 | -25.27475 | 26.69274 | 32580 ft | 545 kts | 111° |
| 2026-05-07 13:08 | -25.30086 | 26.77321 | 32576 ft | 562 kts | 111° |
| 2026-05-07 13:09 | -25.32729 | 26.85482 | 32659 ft | 572 kts | 111° |
| 2026-05-07 13:09 | -25.34074 | 26.89642 | 32770 ft | 575 kts | 111° |
| 2026-05-07 13:09 | -25.35424 | 26.93823 | 32906 ft | 577 kts | 111° |
| 2026-05-07 13:10 | -25.36769 | 26.97988 | 33042 ft | 578 kts | 110° |
| 2026-05-07 13:10 | -25.38115 | 27.02165 | 33124 ft | 581 kts | 111° |
| 2026-05-07 13:10 | -25.40830 | 27.10599 | 33117 ft | 584 kts | 111° |
| 2026-05-07 13:11 | -25.43535 | 27.19021 | 33114 ft | 582 kts | 110° |
| 2026-05-07 13:11 | -25.46692 | 27.28874 | 33116 ft | 579 kts | 110° |
| 2026-05-07 13:12 | -25.48918 | 27.35834 | 33119 ft | 579 kts | 110° |
| 2026-05-07 13:12 | -25.51594 | 27.44216 | 33112 ft | 579 kts | 110° |
| 2026-05-07 13:13 | -25.54281 | 27.52652 | 33111 ft | 579 kts | 110° |
| 2026-05-07 13:13 | -25.56933 | 27.60999 | 33115 ft | 580 kts | 110° |
| 2026-05-07 13:14 | -25.59613 | 27.69449 | 33124 ft | 580 kts | 110° |
| 2026-05-07 13:14 | -25.62276 | 27.77867 | 33129 ft | 580 kts | 110° |
| 2026-05-07 13:15 | -25.64939 | 27.86302 | 33125 ft | 581 kts | 110° |
| 2026-05-07 13:15 | -25.67593 | 27.94727 | 33115 ft | 581 kts | 110° |
| 2026-05-07 13:16 | -25.70247 | 28.03170 | 33117 ft | 581 kts | 110° |
| 2026-05-07 13:16 | -25.72901 | 28.11634 | 33122 ft | 581 kts | 109° |
| 2026-05-07 13:17 | -25.75551 | 28.20105 | 33125 ft | 581 kts | 110° |
| 2026-05-07 13:17 | -25.78181 | 28.28531 | 33131 ft | 581 kts | 109° |
| 2026-05-07 13:18 | -25.80824 | 28.37017 | 33132 ft | 581 kts | 110° |
| 2026-05-07 13:18 | -25.83457 | 28.45493 | 33125 ft | 581 kts | 109° |
| 2026-05-07 13:19 | -25.86085 | 28.53968 | 33124 ft | 581 kts | 109° |
| 2026-05-07 13:19 | -25.88687 | 28.62381 | 33121 ft | 581 kts | 109° |
| 2026-05-07 13:20 | -25.91306 | 28.70869 | 33120 ft | 581 kts | 109° |
| 2026-05-07 13:20 | -25.93920 | 28.79361 | 33129 ft | 581 kts | 109° |
| 2026-05-07 13:21 | -25.96525 | 28.87844 | 33130 ft | 582 kts | 109° |
| 2026-05-07 13:21 | -25.99138 | 28.96369 | 33128 ft | 582 kts | 109° |
| 2026-05-07 13:22 | -26.01723 | 29.04828 | 33126 ft | 582 kts | 109° |
| 2026-05-07 13:22 | -26.03873 | 29.13493 | 33128 ft | 580 kts | 98° |
| 2026-05-07 13:23 | -26.04496 | 29.22360 | 33121 ft | 574 kts | 85° |
| 2026-05-07 13:23 | -26.04186 | 29.31179 | 33121 ft | 574 kts | 84° |
| 2026-05-07 13:24 | -26.03854 | 29.40061 | 33123 ft | 572 kts | 84° |
| 2026-05-07 13:24 | -26.03692 | 29.44419 | 33129 ft | 558 kts | 84° |
| 2026-05-07 13:24 | -26.03537 | 29.48614 | 33119 ft | 541 kts | 83° |
| 2026-05-07 13:25 | -26.03222 | 29.56905 | 33122 ft | 528 kts | 83° |
| 2026-05-07 13:25 | -26.02905 | 29.65020 | 33118 ft | 526 kts | 83° |
| 2026-05-07 13:26 | -26.02585 | 29.73143 | 33116 ft | 526 kts | 82° |
| 2026-05-07 13:26 | -26.02259 | 29.81278 | 33116 ft | 526 kts | 82° |
| 2026-05-07 13:27 | -26.01931 | 29.89396 | 33113 ft | 525 kts | 82° |
| 2026-05-07 13:27 | -26.01608 | 29.97418 | 33114 ft | 506 kts | 82° |
| 2026-05-07 13:28 | -26.01292 | 30.05114 | 33112 ft | 494 kts | 82° |
| 2026-05-07 13:28 | -26.00994 | 30.12211 | 33100 ft | 492 kts | 82° |
| 2026-05-07 13:29 | -26.00671 | 30.19786 | 33104 ft | 492 kts | 82° |
| 2026-05-07 13:29 | -26.00345 | 30.27369 | 33094 ft | 493 kts | 82° |
| 2026-05-07 13:30 | -26.00016 | 30.34931 | 33088 ft | 492 kts | 82° |
| 2026-05-07 13:30 | -25.99682 | 30.42514 | 33067 ft | 492 kts | 82° |
| 2026-05-07 13:31 | -25.99350 | 30.50034 | 32907 ft | 485 kts | 82° |
| 2026-05-07 13:31 | -25.99180 | 30.53807 | 32184 ft | 490 kts | 82° |
| 2026-05-07 13:31 | -25.99010 | 30.57573 | 31435 ft | 490 kts | 82° |
| 2026-05-07 13:32 | -25.98839 | 30.61359 | 30685 ft | 489 kts | 82° |
| 2026-05-07 13:32 | -25.98669 | 30.65095 | 29941 ft | 487 kts | 82° |
| 2026-05-07 13:32 | -25.98499 | 30.68812 | 29187 ft | 485 kts | 81° |
| 2026-05-07 13:32 | -25.98325 | 30.72601 | 28430 ft | 482 kts | 81° |
| 2026-05-07 13:33 | -25.98156 | 30.76262 | 27675 ft | 480 kts | 82° |
| 2026-05-07 13:33 | -25.97984 | 30.79968 | 26931 ft | 477 kts | 82° |
| 2026-05-07 13:33 | -25.97815 | 30.83586 | 26188 ft | 473 kts | 81° |
| 2026-05-07 13:33 | -25.97644 | 30.87230 | 25425 ft | 470 kts | 81° |
| 2026-05-07 13:34 | -25.97474 | 30.90847 | 24666 ft | 466 kts | 82° |
| 2026-05-07 13:34 | -25.97136 | 30.97949 | 23179 ft | 458 kts | 82° |
| 2026-05-07 13:34 | -25.96969 | 31.01436 | 22437 ft | 454 kts | 82° |
| 2026-05-07 13:35 | -25.96803 | 31.04886 | 21694 ft | 449 kts | 82° |
| 2026-05-07 13:35 | -25.96636 | 31.08341 | 20945 ft | 444 kts | 82° |
| 2026-05-07 13:35 | -25.96471 | 31.11736 | 20189 ft | 439 kts | 82° |
| 2026-05-07 13:35 | -25.96306 | 31.15089 | 19428 ft | 434 kts | 83° |
| 2026-05-07 13:36 | -25.96145 | 31.18372 | 18687 ft | 429 kts | 83° |
| 2026-05-07 13:36 | -25.95983 | 31.21648 | 17910 ft | 424 kts | 83° |
| 2026-05-07 13:36 | -25.95801 | 31.24887 | 16983 ft | 423 kts | 80° |
| 2026-05-07 13:36 | -25.95051 | 31.27991 | 16030 ft | 410 kts | 59° |
| 2026-05-07 13:37 | -25.93429 | 31.30439 | 15390 ft | 383 kts | 36° |
| 2026-05-07 13:37 | -25.91294 | 31.32061 | 14980 ft | 358 kts | 24° |
| 2026-05-07 13:37 | -25.89200 | 31.33430 | 14673 ft | 342 kts | 25° |
| 2026-05-07 13:37 | -25.86881 | 31.35763 | 14209 ft | 341 kts | 48° |
| 2026-05-07 13:38 | -25.86075 | 31.37274 | 13959 ft | 342 kts | 60° |
| 2026-05-07 13:38 | -25.85414 | 31.39811 | 13564 ft | 342 kts | 80° |
| 2026-05-07 13:38 | -25.85475 | 31.42421 | 13161 ft | 341 kts | 99° |
| 2026-05-07 13:38 | -25.86109 | 31.44941 | 12798 ft | 341 kts | 107° |
| 2026-05-07 13:39 | -25.86824 | 31.47436 | 12464 ft | 340 kts | 107° |
| 2026-05-07 13:39 | -25.87044 | 31.48213 | 12361 ft | 340 kts | 107° |
| 2026-05-07 13:42 | -25.87086 | 31.48361 | 12342 ft | 340 kts | 107° |
| 2026-05-07 13:43 | -25.87795 | 31.50862 | 11961 ft | 340 kts | 107° |
| 2026-05-07 13:43 | -25.88503 | 31.53358 | 11471 ft | 338 kts | 107° |
| 2026-05-07 13:43 | -25.89201 | 31.55821 | 11059 ft | 332 kts | 108° |
| 2026-05-07 13:43 | -25.89890 | 31.58254 | 10625 ft | 326 kts | 108° |
| 2026-05-07 13:44 | -25.90563 | 31.60646 | 10202 ft | 321 kts | 108° |
| 2026-05-07 13:44 | -25.91210 | 31.62987 | 9766 ft | 317 kts | 107° |
| 2026-05-07 13:44 | -25.91849 | 31.65321 | 9351 ft | 312 kts | 107° |
| 2026-05-07 13:44 | -25.92475 | 31.67606 | 8943 ft | 307 kts | 107° |
| 2026-05-07 13:45 | -25.93100 | 31.69882 | 8552 ft | 301 kts | 108° |
| 2026-05-07 13:45 | -25.94017 | 31.71814 | 8706 ft | 271 kts | 134° |
| 2026-05-07 13:45 | -25.95543 | 31.72956 | 8081 ft | 266 kts | 168° |
| 2026-05-07 13:45 | -25.97192 | 31.72833 | 8034 ft | 217 kts | 211° |
| 2026-05-07 13:46 | -25.98497 | 31.71945 | 7643 ft | 228 kts | 214° |
| 2026-05-07 13:46 | -26.00043 | 31.71628 | 7464 ft | 220 kts | 182° |
| 2026-05-07 13:46 | -26.01574 | 31.71641 | 7117 ft | 231 kts | 189° |
| 2026-05-07 13:46 | -26.03155 | 31.71562 | 6870 ft | 217 kts | 186° |
| 2026-05-07 13:47 | -26.04683 | 31.71552 | 6494 ft | 221 kts | 186° |
| 2026-05-07 13:47 | -26.06149 | 31.71547 | 6329 ft | 204 kts | 186° |
| 2026-05-07 13:47 | -26.07607 | 31.71546 | 5987 ft | 208 kts | 185° |
| 2026-05-07 13:47 | -26.08993 | 31.71559 | 5812 ft | 186 kts | 186° |
| 2026-05-07 13:48 | -26.10312 | 31.71560 | 5509 ft | 187 kts | 186° |
| 2026-05-07 13:48 | -26.11510 | 31.71575 | 5344 ft | 159 kts | 186° |
| 2026-05-07 13:48 | -26.12612 | 31.71579 | 5103 ft | 156 kts | 186° |
| 2026-05-07 13:48 | -26.13690 | 31.71581 | 4906 ft | 152 kts | 186° |
| 2026-05-07 13:49 | -26.14743 | 31.71585 | 4712 ft | 152 kts | 186° |
| 2026-05-07 13:49 | -26.15811 | 31.71591 | 4516 ft | 151 kts | 185° |
| 2026-05-07 13:49 | -26.16864 | 31.71597 | 4328 ft | 151 kts | 185° |
| 2026-05-07 13:49 | -26.17915 | 31.71603 | 4137 ft | 150 kts | 185° |
| 2026-05-07 13:50 | -26.18965 | 31.71613 | 3933 ft | 150 kts | 185° |
| 2026-05-07 13:50 | -26.20025 | 31.71623 | 3712 ft | 150 kts | 185° |
| 2026-05-07 13:50 | -26.21427 | 31.71642 | 3386 ft | 150 kts | 185° |
| 2026-05-07 13:50 | -26.22116 | 31.71648 | 3228 ft | 150 kts | 184° |
| 2026-05-07 13:51 | -26.23165 | 31.71646 | 3057 ft | 149 kts | 185° |
| 2026-05-07 13:51 | -26.24204 | 31.71638 | 2938 ft | 149 kts | 185° |
| 2026-05-07 13:51 | -26.25249 | 31.71646 | 2790 ft | 149 kts | 184° |
| 2026-05-07 13:51 | -26.26270 | 31.71656 | 2604 ft | 145 kts | 184° |
| 2026-05-07 13:52 | -26.27269 | 31.71663 | 2416 ft | 142 kts | 184° |
| 2026-05-07 13:52 | -26.28258 | 31.71666 | 2244 ft | 140 kts | 183° |
| 2026-05-07 13:52 | -26.29240 | 31.71674 | 2066 ft | 139 kts | 183° |
| 2026-05-07 13:52 | -26.30205 | 31.71681 | 1885 ft | 138 kts | 184° |
| 2026-05-07 13:53 | -26.31172 | 31.71692 | 1700 ft | 137 kts | 184° |
| 2026-05-07 13:53 | -26.32133 | 31.71694 | 1522 ft | 138 kts | 184° |
| 2026-05-07 13:53 | -26.33090 | 31.71698 | 1355 ft | 138 kts | 184° |
| 2026-05-07 13:53 | -26.34052 | 31.71704 | 1178 ft | 138 kts | 184° |
| 2026-05-07 13:54 | -26.34959 | 31.71711 | 1087 ft | 118 kts | 184° |
| 2026-05-07 13:54 | -26.35676 | 31.71711 | 1075 ft | 84 kts | 180° |
| 2026-05-07 13:54 | -26.36118 | 31.71713 | 1077 ft | 21 kts | 181° |
| 2026-05-07 13:54 | -26.36177 | 31.71714 | 1077 ft | 6 kts | 23° |
| 2026-05-07 13:55 | -26.36052 | 31.71714 | 1076 ft | 32 kts | 358° |
| 2026-05-07 13:55 | -26.35804 | 31.71710 | 1075 ft | 36 kts | 360° |
| 2026-05-07 13:55 | -26.35547 | 31.71709 | 1075 ft | 37 kts | 359° |
| 2026-05-07 13:55 | -26.35290 | 31.71707 | 1079 ft | 36 kts | 0° |
| 2026-05-07 13:56 | -26.35059 | 31.71706 | 1084 ft | 21 kts | 1° |
| 2026-05-07 13:56 | -26.34988 | 31.71787 | 1083 ft | 18 kts | 83° |
| 2026-05-07 13:56 | -26.34988 | 31.71902 | 1075 ft | 15 kts | 94° |
| 2026-05-07 13:56 | -26.34954 | 31.71977 | 1071 ft | 11 kts | 3° |
| 2026-05-07 13:57 | -26.34857 | 31.71976 | 1070 ft | 15 kts | 357° |
| 2026-05-07 13:57 | -26.34760 | 31.71981 | 1070 ft | 13 kts | 25° |
| 2026-05-07 13:57 | -26.34740 | 31.72091 | 1062 ft | 19 kts | 89° |
| 2026-05-07 13:57 | -26.34783 | 31.72126 | 1062 ft | 10 kts | 179° |
| 2026-05-07 13:58 | -26.34833 | 31.72127 | 1061 ft | 1 kts | 180° |
| 2026-05-07 13:58 | -26.34836 | 31.72127 | 1061 ft | 0 kts | 180° |